sensor_id;sensor_type;location;lat;lon;timestamp;pressure;altitude;pressure_sealevel;temperature
67758;BMP180;54562;47.620;18.786;2023-02-25T00:02:26;96805.40;;;6.70
67758;BMP180;54562;47.620;18.786;2023-02-25T00:05:38;96806.80;;;6.70
67758;BMP180;54562;47.620;18.786;2023-02-25T00:08:48;96807.40;;;6.64
67758;BMP180;54562;47.620;18.786;2023-02-25T00:11:57;96804.20;;;6.60
67758;BMP180;54562;47.620;18.786;2023-02-25T00:15:08;96804.20;;;6.60
67758;BMP180;54562;47.620;18.786;2023-02-25T00:18:16;96799.20;;;6.50
67758;BMP180;54562;47.620;18.786;2023-02-25T00:21:26;96796.20;;;6.48
67758;BMP180;54562;47.620;18.786;2023-02-25T00:24:33;96789.00;;;6.40
67758;BMP180;54562;47.620;18.786;2023-02-25T00:27:41;96787.00;;;6.30
67758;BMP180;54562;47.620;18.786;2023-02-25T00:30:49;96788.80;;;6.30
67758;BMP180;54562;47.620;18.786;2023-02-25T00:33:58;96777.40;;;6.30
67758;BMP180;54562;47.620;18.786;2023-02-25T00:37:06;96772.20;;;6.20
67758;BMP180;54562;47.620;18.786;2023-02-25T00:40:15;96770.80;;;6.20
67758;BMP180;54562;47.620;18.786;2023-02-25T00:43:23;96756.60;;;6.10
67758;BMP180;54562;47.620;18.786;2023-02-25T00:46:33;96754.40;;;6.10
67758;BMP180;54562;47.620;18.786;2023-02-25T00:49:41;96751.20;;;6.00
67758;BMP180;54562;47.620;18.786;2023-02-25T00:52:49;96739.40;;;6.00
67758;BMP180;54562;47.620;18.786;2023-02-25T00:56:03;96735.20;;;6.00
67758;BMP180;54562;47.620;18.786;2023-02-25T00:59:12;96729.20;;;5.96
67758;BMP180;54562;47.620;18.786;2023-02-25T01:02:20;96721.20;;;5.90
67758;BMP180;54562;47.620;18.786;2023-02-25T01:05:28;96717.00;;;5.90
67758;BMP180;54562;47.620;18.786;2023-02-25T01:08:38;96704.80;;;5.90
67758;BMP180;54562;47.620;18.786;2023-02-25T01:11:46;96702.40;;;5.90
67758;BMP180;54562;47.620;18.786;2023-02-25T01:14:57;96703.00;;;5.88
67758;BMP180;54562;47.620;18.786;2023-02-25T01:18:06;96695.20;;;5.84
67758;BMP180;54562;47.620;18.786;2023-02-25T01:21:20;96690.00;;;5.80
67758;BMP180;54562;47.620;18.786;2023-02-25T01:24:33;96681.00;;;5.80
67758;BMP180;54562;47.620;18.786;2023-02-25T01:27:43;96674.40;;;5.80
67758;BMP180;54562;47.620;18.786;2023-02-25T01:30:50;96663.80;;;5.70
67758;BMP180;54562;47.620;18.786;2023-02-25T01:34:00;96656.80;;;5.70
67758;BMP180;54562;47.620;18.786;2023-02-25T01:37:09;96653.40;;;5.70
67758;BMP180;54562;47.620;18.786;2023-02-25T01:40:18;96646.80;;;5.60
67758;BMP180;54562;47.620;18.786;2023-02-25T01:43:27;96633.60;;;5.60
67758;BMP180;54562;47.620;18.786;2023-02-25T01:46:35;96633.80;;;5.50
67758;BMP180;54562;47.620;18.786;2023-02-25T01:49:46;96624.20;;;5.50
67758;BMP180;54562;47.620;18.786;2023-02-25T01:52:57;96623.60;;;5.50
67758;BMP180;54562;47.620;18.786;2023-02-25T01:56:07;96617.80;;;5.40
67758;BMP180;54562;47.620;18.786;2023-02-25T01:59:20;96616.00;;;5.40
67758;BMP180;54562;47.620;18.786;2023-02-25T02:02:30;96616.80;;;5.40
67758;BMP180;54562;47.620;18.786;2023-02-25T02:05:54;96611.40;;;5.40
67758;BMP180;54562;47.620;18.786;2023-02-25T02:09:05;96610.00;;;5.40
67758;BMP180;54562;47.620;18.786;2023-02-25T02:12:13;96612.80;;;5.40
67758;BMP180;54562;47.620;18.786;2023-02-25T02:15:22;96606.00;;;5.40
67758;BMP180;54562;47.620;18.786;2023-02-25T02:18:34;96600.40;;;5.34
67758;BMP180;54562;47.620;18.786;2023-02-25T02:21:59;96592.40;;;5.40
67758;BMP180;54562;47.620;18.786;2023-02-25T02:25:52;96589.00;;;5.40
67758;BMP180;54562;47.620;18.786;2023-02-25T02:29:46;96578.20;;;5.50
67758;BMP180;54562;47.620;18.786;2023-02-25T02:33:09;96574.60;;;5.60
67758;BMP180;54562;47.620;18.786;2023-02-25T02:36:33;96569.20;;;5.60
67758;BMP180;54562;47.620;18.786;2023-02-25T02:39:54;96572.20;;;5.70
67758;BMP180;54562;47.620;18.786;2023-02-25T02:43:19;96586.60;;;5.70
67758;BMP180;54562;47.620;18.786;2023-02-25T02:46:34;96585.60;;;5.80
67758;BMP180;54562;47.620;18.786;2023-02-25T02:49:49;96587.80;;;5.80
67758;BMP180;54562;47.620;18.786;2023-02-25T02:53:04;96587.80;;;5.90
67758;BMP180;54562;47.620;18.786;2023-02-25T02:56:17;96586.60;;;6.00
67758;BMP180;54562;47.620;18.786;2023-02-25T02:59:32;96585.60;;;6.10
67758;BMP180;54562;47.620;18.786;2023-02-25T03:02:44;96592.20;;;6.12
67758;BMP180;54562;47.620;18.786;2023-02-25T03:05:54;96597.40;;;6.20
67758;BMP180;54562;47.620;18.786;2023-02-25T03:09:08;96605.20;;;6.20
67758;BMP180;54562;47.620;18.786;2023-02-25T03:12:18;96599.20;;;6.20
67758;BMP180;54562;47.620;18.786;2023-02-25T03:15:28;96593.60;;;6.20
67758;BMP180;54562;47.620;18.786;2023-02-25T03:18:41;96606.60;;;6.18
67758;BMP180;54562;47.620;18.786;2023-02-25T03:21:54;96608.40;;;6.10
67758;BMP180;54562;47.620;18.786;2023-02-25T03:25:11;96607.00;;;6.10
67758;BMP180;54562;47.620;18.786;2023-02-25T03:28:28;96611.80;;;6.10
67758;BMP180;54562;47.620;18.786;2023-02-25T03:31:41;96611.80;;;6.10
67758;BMP180;54562;47.620;18.786;2023-02-25T03:34:53;96613.00;;;6.10
67758;BMP180;54562;47.620;18.786;2023-02-25T03:38:08;96608.00;;;6.10
67758;BMP180;54562;47.620;18.786;2023-02-25T03:41:20;96607.40;;;6.14
67758;BMP180;54562;47.620;18.786;2023-02-25T03:44:36;96618.80;;;6.20
67758;BMP180;54562;47.620;18.786;2023-02-25T03:47:47;96619.20;;;6.20
67758;BMP180;54562;47.620;18.786;2023-02-25T03:51:00;96627.20;;;6.20
67758;BMP180;54562;47.620;18.786;2023-02-25T03:54:09;96629.80;;;6.20
67758;BMP180;54562;47.620;18.786;2023-02-25T03:57:17;96627.80;;;6.20
67758;BMP180;54562;47.620;18.786;2023-02-25T04:00:28;96622.40;;;6.20
67758;BMP180;54562;47.620;18.786;2023-02-25T04:03:37;96624.80;;;6.26
67758;BMP180;54562;47.620;18.786;2023-02-25T04:06:45;96622.40;;;6.30
67758;BMP180;54562;47.620;18.786;2023-02-25T04:09:53;96617.40;;;6.30
67758;BMP180;54562;47.620;18.786;2023-02-25T04:13:01;96626.60;;;6.34
67758;BMP180;54562;47.620;18.786;2023-02-25T04:16:09;96631.60;;;6.40
67758;BMP180;54562;47.620;18.786;2023-02-25T04:19:20;96643.80;;;6.40
67758;BMP180;54562;47.620;18.786;2023-02-25T04:22:27;96654.40;;;6.50
67758;BMP180;54562;47.620;18.786;2023-02-25T04:25:36;96654.20;;;6.60
67758;BMP180;54562;47.620;18.786;2023-02-25T04:28:44;96661.40;;;6.70
67758;BMP180;54562;47.620;18.786;2023-02-25T04:31:52;96676.00;;;6.70
67758;BMP180;54562;47.620;18.786;2023-02-25T04:35:01;96674.60;;;6.70
67758;BMP180;54562;47.620;18.786;2023-02-25T04:38:09;96672.60;;;6.74
67758;BMP180;54562;47.620;18.786;2023-02-25T04:41:17;96675.60;;;6.70
67758;BMP180;54562;47.620;18.786;2023-02-25T04:44:26;96676.60;;;6.70
67758;BMP180;54562;47.620;18.786;2023-02-25T04:47:34;96684.40;;;6.70
67758;BMP180;54562;47.620;18.786;2023-02-25T04:50:42;96683.00;;;6.70
67758;BMP180;54562;47.620;18.786;2023-02-25T04:53:50;96693.00;;;6.60
67758;BMP180;54562;47.620;18.786;2023-02-25T04:56:58;96713.40;;;6.60
67758;BMP180;54562;47.620;18.786;2023-02-25T05:00:11;96713.00;;;6.50
67758;BMP180;54562;47.620;18.786;2023-02-25T05:03:21;96723.80;;;6.50
67758;BMP180;54562;47.620;18.786;2023-02-25T05:06:31;96724.40;;;6.40
67758;BMP180;54562;47.620;18.786;2023-02-25T05:09:40;96717.40;;;6.40
67758;BMP180;54562;47.620;18.786;2023-02-25T05:12:49;96721.40;;;6.30
67758;BMP180;54562;47.620;18.786;2023-02-25T05:16:07;96725.00;;;6.24
67758;BMP180;54562;47.620;18.786;2023-02-25T05:19:20;96723.80;;;6.20
67758;BMP180;54562;47.620;18.786;2023-02-25T05:22:28;96714.80;;;6.20
67758;BMP180;54562;47.620;18.786;2023-02-25T05:25:36;96720.00;;;6.10
67758;BMP180;54562;47.620;18.786;2023-02-25T05:28:48;96725.60;;;6.02
67758;BMP180;54562;47.620;18.786;2023-02-25T05:31:55;96725.00;;;6.00
67758;BMP180;54562;47.620;18.786;2023-02-25T05:35:04;96726.80;;;5.94
67758;BMP180;54562;47.620;18.786;2023-02-25T05:38:14;96734.20;;;5.90
67758;BMP180;54562;47.620;18.786;2023-02-25T05:41:23;96734.60;;;5.90
67758;BMP180;54562;47.620;18.786;2023-02-25T05:44:31;96737.40;;;5.84
67758;BMP180;54562;47.620;18.786;2023-02-25T05:47:39;96753.40;;;5.80
67758;BMP180;54562;47.620;18.786;2023-02-25T05:50:47;96759.20;;;5.80
67758;BMP180;54562;47.620;18.786;2023-02-25T05:53:56;96777.80;;;5.74
67758;BMP180;54562;47.620;18.786;2023-02-25T05:57:04;96789.20;;;5.70
67758;BMP180;54562;47.620;18.786;2023-02-25T06:00:15;96791.80;;;5.60
67758;BMP180;54562;47.620;18.786;2023-02-25T06:03:26;96779.80;;;5.58
67758;BMP180;54562;47.620;18.786;2023-02-25T06:06:35;96784.60;;;5.50
67758;BMP180;54562;47.620;18.786;2023-02-25T06:09:44;96793.20;;;5.50
67758;BMP180;54562;47.620;18.786;2023-02-25T06:12:52;96802.40;;;5.50
67758;BMP180;54562;47.620;18.786;2023-02-25T06:16:03;96806.60;;;5.44
67758;BMP180;54562;47.620;18.786;2023-02-25T06:19:13;96817.00;;;5.40
67758;BMP180;54562;47.620;18.786;2023-02-25T06:22:22;96816.00;;;5.34
67758;BMP180;54562;47.620;18.786;2023-02-25T06:25:30;96810.00;;;5.30
67758;BMP180;54562;47.620;18.786;2023-02-25T06:28:38;96805.60;;;5.28
67758;BMP180;54562;47.620;18.786;2023-02-25T06:31:47;96813.80;;;5.20
67758;BMP180;54562;47.620;18.786;2023-02-25T06:34:55;96813.00;;;5.20
67758;BMP180;54562;47.620;18.786;2023-02-25T06:38:04;96806.80;;;5.20
67758;BMP180;54562;47.620;18.786;2023-02-25T06:41:15;96820.40;;;5.20
67758;BMP180;54562;47.620;18.786;2023-02-25T06:44:24;96838.80;;;5.20
67758;BMP180;54562;47.620;18.786;2023-02-25T06:47:32;96833.80;;;5.20
67758;BMP180;54562;47.620;18.786;2023-02-25T06:50:43;96834.40;;;5.20
67758;BMP180;54562;47.620;18.786;2023-02-25T06:53:51;96834.60;;;5.20
67758;BMP180;54562;47.620;18.786;2023-02-25T06:57:00;96845.20;;;5.20
67758;BMP180;54562;47.620;18.786;2023-02-25T07:00:11;96859.20;;;5.18
67758;BMP180;54562;47.620;18.786;2023-02-25T07:03:19;96858.20;;;5.18
67758;BMP180;54562;47.620;18.786;2023-02-25T07:06:27;96865.00;;;5.12
67758;BMP180;54562;47.620;18.786;2023-02-25T07:09:35;96872.20;;;5.18
67758;BMP180;54562;47.620;18.786;2023-02-25T07:12:43;96892.20;;;5.20
67758;BMP180;54562;47.620;18.786;2023-02-25T07:15:51;96894.00;;;5.20
67758;BMP180;54562;47.620;18.786;2023-02-25T07:19:00;96881.40;;;5.20
67758;BMP180;54562;47.620;18.786;2023-02-25T07:22:13;96885.40;;;5.10
67758;BMP180;54562;47.620;18.786;2023-02-25T07:25:23;96884.60;;;5.02
67758;BMP180;54562;47.620;18.786;2023-02-25T07:28:31;96877.40;;;5.00
67758;BMP180;54562;47.620;18.786;2023-02-25T07:31:39;96889.20;;;4.92
67758;BMP180;54562;47.620;18.786;2023-02-25T07:34:47;96876.40;;;4.90
67758;BMP180;54562;47.620;18.786;2023-02-25T07:37:55;96868.60;;;4.80
67758;BMP180;54562;47.620;18.786;2023-02-25T07:41:10;96861.60;;;4.80
67758;BMP180;54562;47.620;18.786;2023-02-25T07:44:18;96858.80;;;4.80
67758;BMP180;54562;47.620;18.786;2023-02-25T07:47:27;96858.60;;;4.80
67758;BMP180;54562;47.620;18.786;2023-02-25T07:50:35;96866.40;;;4.76
67758;BMP180;54562;47.620;18.786;2023-02-25T07:53:43;96869.80;;;4.70
67758;BMP180;54562;47.620;18.786;2023-02-25T07:56:52;96876.40;;;4.70
67758;BMP180;54562;47.620;18.786;2023-02-25T08:00:00;96886.20;;;4.70
67758;BMP180;54562;47.620;18.786;2023-02-25T08:03:09;96880.40;;;4.70
67758;BMP180;54562;47.620;18.786;2023-02-25T08:06:17;96872.00;;;4.70
67758;BMP180;54562;47.620;18.786;2023-02-25T08:09:26;96873.40;;;4.70
67758;BMP180;54562;47.620;18.786;2023-02-25T08:12:34;96869.00;;;4.70
67758;BMP180;54562;47.620;18.786;2023-02-25T08:15:44;96891.80;;;4.70
67758;BMP180;54562;47.620;18.786;2023-02-25T08:18:53;96901.00;;;4.70
67758;BMP180;54562;47.620;18.786;2023-02-25T08:22:01;96888.80;;;4.70
67758;BMP180;54562;47.620;18.786;2023-02-25T08:25:11;96894.40;;;4.70
67758;BMP180;54562;47.620;18.786;2023-02-25T08:28:19;96903.00;;;4.70
67758;BMP180;54562;47.620;18.786;2023-02-25T08:31:28;96906.60;;;4.70
67758;BMP180;54562;47.620;18.786;2023-02-25T08:34:36;96899.80;;;4.70
67758;BMP180;54562;47.620;18.786;2023-02-25T08:37:46;96897.40;;;4.78
67758;BMP180;54562;47.620;18.786;2023-02-25T08:40:55;96906.00;;;4.80
67758;BMP180;54562;47.620;18.786;2023-02-25T08:44:07;96913.60;;;4.80
67758;BMP180;54562;47.620;18.786;2023-02-25T08:47:15;96910.40;;;4.80
67758;BMP180;54562;47.620;18.786;2023-02-25T08:50:24;96896.40;;;4.80
67758;BMP180;54562;47.620;18.786;2023-02-25T08:53:34;96902.20;;;4.80
67758;BMP180;54562;47.620;18.786;2023-02-25T08:56:44;96912.40;;;4.80
67758;BMP180;54562;47.620;18.786;2023-02-25T08:59:52;96909.60;;;4.80
67758;BMP180;54562;47.620;18.786;2023-02-25T09:03:02;96911.60;;;4.80
67758;BMP180;54562;47.620;18.786;2023-02-25T09:06:13;96906.60;;;4.80
67758;BMP180;54562;47.620;18.786;2023-02-25T09:09:23;96913.20;;;4.80
67758;BMP180;54562;47.620;18.786;2023-02-25T09:12:32;96900.80;;;4.80
67758;BMP180;54562;47.620;18.786;2023-02-25T09:15:41;96889.80;;;4.80
67758;BMP180;54562;47.620;18.786;2023-02-25T09:18:51;96885.60;;;4.82
67758;BMP180;54562;47.620;18.786;2023-02-25T09:22:02;96892.80;;;4.88
67758;BMP180;54562;47.620;18.786;2023-02-25T09:25:10;96907.80;;;4.90
67758;BMP180;54562;47.620;18.786;2023-02-25T09:28:19;96918.00;;;4.90
67758;BMP180;54562;47.620;18.786;2023-02-25T09:31:30;96917.80;;;4.90
67758;BMP180;54562;47.620;18.786;2023-02-25T09:34:39;96920.40;;;4.92
67758;BMP180;54562;47.620;18.786;2023-02-25T09:37:47;96912.20;;;5.00
67758;BMP180;54562;47.620;18.786;2023-02-25T09:40:55;96896.80;;;5.00
67758;BMP180;54562;47.620;18.786;2023-02-25T09:44:09;96890.40;;;5.10
67758;BMP180;54562;47.620;18.786;2023-02-25T09:47:24;96879.80;;;5.20
67758;BMP180;54562;47.620;18.786;2023-02-25T09:50:37;96882.60;;;5.20
67758;BMP180;54562;47.620;18.786;2023-02-25T09:53:54;96897.40;;;5.30
67758;BMP180;54562;47.620;18.786;2023-02-25T09:57:08;96879.00;;;5.40
67758;BMP180;54562;47.620;18.786;2023-02-25T10:00:20;96880.20;;;5.50
67758;BMP180;54562;47.620;18.786;2023-02-25T10:03:50;96885.40;;;5.70
67758;BMP180;54562;47.620;18.786;2023-02-25T10:07:10;96887.20;;;6.08
67758;BMP180;54562;47.620;18.786;2023-02-25T10:10:28;96871.80;;;6.46
67758;BMP180;54562;47.620;18.786;2023-02-25T10:13:50;96867.60;;;6.80
67758;BMP180;54562;47.620;18.786;2023-02-25T10:17:11;96863.20;;;6.88
67758;BMP180;54562;47.620;18.786;2023-02-25T10:20:49;96884.40;;;6.90
67758;BMP180;54562;47.620;18.786;2023-02-25T10:24:15;96892.00;;;6.90
67758;BMP180;54562;47.620;18.786;2023-02-25T10:27:31;96901.20;;;6.90
67758;BMP180;54562;47.620;18.786;2023-02-25T10:30:51;96882.20;;;6.82
67758;BMP180;54562;47.620;18.786;2023-02-25T10:34:21;96884.40;;;6.70
67758;BMP180;54562;47.620;18.786;2023-02-25T10:37:35;96917.60;;;6.60
67758;BMP180;54562;47.620;18.786;2023-02-25T10:40:44;96913.00;;;6.50
67758;BMP180;54562;47.620;18.786;2023-02-25T10:43:53;96893.00;;;6.50
67758;BMP180;54562;47.620;18.786;2023-02-25T10:47:07;96885.20;;;6.40
67758;BMP180;54562;47.620;18.786;2023-02-25T10:50:23;96873.00;;;6.66
67758;BMP180;54562;47.620;18.786;2023-02-25T10:54:05;96882.20;;;7.00
67758;BMP180;54562;47.620;18.786;2023-02-25T10:57:18;96897.20;;;7.08
67758;BMP180;54562;47.620;18.786;2023-02-25T11:00:34;96900.80;;;7.02
67758;BMP180;54562;47.620;18.786;2023-02-25T11:03:55;96902.40;;;7.00
67758;BMP180;54562;47.620;18.786;2023-02-25T11:07:29;96894.20;;;7.00
67758;BMP180;54562;47.620;18.786;2023-02-25T11:10:37;96883.60;;;6.90
67758;BMP180;54562;47.620;18.786;2023-02-25T11:13:54;96889.20;;;7.00
67758;BMP180;54562;47.620;18.786;2023-02-25T11:17:13;96892.80;;;7.00
67758;BMP180;54562;47.620;18.786;2023-02-25T11:20:27;96885.40;;;7.12
67758;BMP180;54562;47.620;18.786;2023-02-25T11:23:47;96879.40;;;7.30
67758;BMP180;54562;47.620;18.786;2023-02-25T11:26:57;96873.80;;;7.50
67758;BMP180;54562;47.620;18.786;2023-02-25T11:30:18;96857.20;;;7.70
67758;BMP180;54562;47.620;18.786;2023-02-25T11:33:33;96851.60;;;7.90
67758;BMP180;54562;47.620;18.786;2023-02-25T11:36:42;96849.00;;;8.10
67758;BMP180;54562;47.620;18.786;2023-02-25T11:39:56;96848.20;;;8.30
67758;BMP180;54562;47.620;18.786;2023-02-25T11:43:18;96846.60;;;8.40
67758;BMP180;54562;47.620;18.786;2023-02-25T11:46:29;96847.80;;;8.54
67758;BMP180;54562;47.620;18.786;2023-02-25T11:50:11;96853.00;;;8.60
67758;BMP180;54562;47.620;18.786;2023-02-25T11:53:40;96840.20;;;8.66
67758;BMP180;54562;47.620;18.786;2023-02-25T11:56:58;96840.20;;;8.70
67758;BMP180;54562;47.620;18.786;2023-02-25T12:00:23;96850.60;;;8.70
67758;BMP180;54562;47.620;18.786;2023-02-25T12:04:06;96846.40;;;9.00
67758;BMP180;54562;47.620;18.786;2023-02-25T12:07:50;96848.20;;;9.00
67758;BMP180;54562;47.620;18.786;2023-02-25T12:11:53;96836.60;;;8.70
67758;BMP180;54562;47.620;18.786;2023-02-25T12:15:43;96820.20;;;8.50
67758;BMP180;54562;47.620;18.786;2023-02-25T12:31:19;96798.20;;;9.20
67758;BMP180;54562;47.620;18.786;2023-02-25T12:35:10;96824.60;;;9.40
67758;BMP180;54562;47.620;18.786;2023-02-25T12:39:01;96836.80;;;9.40
67758;BMP180;54562;47.620;18.786;2023-02-25T12:42:28;96839.40;;;9.30
67758;BMP180;54562;47.620;18.786;2023-02-25T12:45:58;96838.00;;;9.42
67758;BMP180;54562;47.620;18.786;2023-02-25T12:49:29;96843.80;;;9.60
67758;BMP180;54562;47.620;18.786;2023-02-25T12:52:56;96847.40;;;9.86
67758;BMP180;54562;47.620;18.786;2023-02-25T13:00:41;96843.60;;;10.10
67758;BMP180;54562;47.620;18.786;2023-02-25T13:04:18;96848.40;;;10.02
67758;BMP180;54562;47.620;18.786;2023-02-25T13:08:14;96853.20;;;10.28
67758;BMP180;54562;47.620;18.786;2023-02-25T13:11:34;96859.80;;;10.60
67758;BMP180;54562;47.620;18.786;2023-02-25T13:15:11;96865.00;;;10.66
67758;BMP180;54562;47.620;18.786;2023-02-25T13:18:31;96871.40;;;10.62
67758;BMP180;54562;47.620;18.786;2023-02-25T13:21:54;96869.20;;;10.34
67758;BMP180;54562;47.620;18.786;2023-02-25T13:25:18;96858.00;;;10.40
67758;BMP180;54562;47.620;18.786;2023-02-25T13:28:54;96859.20;;;10.40
67758;BMP180;54562;47.620;18.786;2023-02-25T13:32:23;96857.40;;;10.38
67758;BMP180;54562;47.620;18.786;2023-02-25T13:35:51;96849.00;;;10.50
67758;BMP180;54562;47.620;18.786;2023-02-25T13:39:21;96862.40;;;10.40
67758;BMP180;54562;47.620;18.786;2023-02-25T13:42:53;96878.80;;;10.30
67758;BMP180;54562;47.620;18.786;2023-02-25T13:50:27;96885.00;;;10.20
67758;BMP180;54562;47.620;18.786;2023-02-25T13:54:06;96896.40;;;10.30
67758;BMP180;54562;47.620;18.786;2023-02-25T13:57:42;96899.60;;;10.10
67758;BMP180;54562;47.620;18.786;2023-02-25T14:01:13;96895.40;;;10.00
67758;BMP180;54562;47.620;18.786;2023-02-25T14:04:57;96893.40;;;10.08
67758;BMP180;54562;47.620;18.786;2023-02-25T14:08:35;96909.20;;;10.20
67758;BMP180;54562;47.620;18.786;2023-02-25T14:12:00;96903.80;;;10.40
67758;BMP180;54562;47.620;18.786;2023-02-25T14:15:34;96909.60;;;10.50
67758;BMP180;54562;47.620;18.786;2023-02-25T14:19:07;96912.20;;;10.50
67758;BMP180;54562;47.620;18.786;2023-02-25T14:22:43;96916.20;;;10.46
67758;BMP180;54562;47.620;18.786;2023-02-25T14:26:25;96934.20;;;10.50
67758;BMP180;54562;47.620;18.786;2023-02-25T14:29:49;96927.00;;;10.30
67758;BMP180;54562;47.620;18.786;2023-02-25T14:33:22;96925.00;;;10.10
67758;BMP180;54562;47.620;18.786;2023-02-25T14:37:00;96936.80;;;10.00
67758;BMP180;54562;47.620;18.786;2023-02-25T14:40:30;96922.40;;;9.90
67758;BMP180;54562;47.620;18.786;2023-02-25T14:43:42;96887.00;;;9.80
67758;BMP180;54562;47.620;18.786;2023-02-25T14:46:58;96866.80;;;9.70
67758;BMP180;54562;47.620;18.786;2023-02-25T14:50:14;96870.80;;;9.50
67758;BMP180;54562;47.620;18.786;2023-02-25T14:54:00;96887.60;;;9.30
67758;BMP180;54562;47.620;18.786;2023-02-25T15:01:58;96894.20;;;9.06
67758;BMP180;54562;47.620;18.786;2023-02-25T15:05:41;96883.80;;;8.90
67758;BMP180;54562;47.620;18.786;2023-02-25T15:09:13;96875.20;;;8.74
67758;BMP180;54562;47.620;18.786;2023-02-25T15:16:25;96887.40;;;8.50
67758;BMP180;54562;47.620;18.786;2023-02-25T15:20:05;96891.60;;;8.40
67758;BMP180;54562;47.620;18.786;2023-02-25T15:23:47;96902.40;;;8.20
67758;BMP180;54562;47.620;18.786;2023-02-25T15:26:58;96927.60;;;8.10
67758;BMP180;54562;47.620;18.786;2023-02-25T15:30:07;96929.00;;;8.00
67758;BMP180;54562;47.620;18.786;2023-02-25T15:33:32;96913.00;;;7.90
67758;BMP180;54562;47.620;18.786;2023-02-25T15:36:46;96929.20;;;7.70
67758;BMP180;54562;47.620;18.786;2023-02-25T15:40:36;96948.40;;;7.50
67758;BMP180;54562;47.620;18.786;2023-02-25T15:43:48;96960.60;;;7.40
67758;BMP180;54562;47.620;18.786;2023-02-25T15:47:27;96954.80;;;7.26
67758;BMP180;54562;47.620;18.786;2023-02-25T15:50:56;96968.40;;;7.10
67758;BMP180;54562;47.620;18.786;2023-02-25T15:54:08;96950.60;;;7.00
67758;BMP180;54562;47.620;18.786;2023-02-25T15:57:37;96951.40;;;6.90
67758;BMP180;54562;47.620;18.786;2023-02-25T16:00:56;96962.60;;;6.72
67758;BMP180;54562;47.620;18.786;2023-02-25T16:04:47;96967.40;;;6.60
67758;BMP180;54562;47.620;18.786;2023-02-25T16:08:15;96961.40;;;6.48
67758;BMP180;54562;47.620;18.786;2023-02-25T16:11:36;96958.00;;;6.40
67758;BMP180;54562;47.620;18.786;2023-02-25T16:14:46;96962.80;;;6.30
67758;BMP180;54562;47.620;18.786;2023-02-25T16:17:58;96962.40;;;6.20
67758;BMP180;54562;47.620;18.786;2023-02-25T16:21:18;96949.40;;;6.10
67758;BMP180;54562;47.620;18.786;2023-02-25T16:24:29;96951.40;;;6.00
67758;BMP180;54562;47.620;18.786;2023-02-25T16:27:53;96951.20;;;5.90
67758;BMP180;54562;47.620;18.786;2023-02-25T16:31:09;96954.40;;;5.82
67758;BMP180;54562;47.620;18.786;2023-02-25T16:34:28;96960.40;;;5.74
67758;BMP180;54562;47.620;18.786;2023-02-25T16:37:48;96970.80;;;5.62
67758;BMP180;54562;47.620;18.786;2023-02-25T16:41:01;96985.40;;;5.60
67758;BMP180;54562;47.620;18.786;2023-02-25T16:44:19;97003.40;;;5.50
67758;BMP180;54562;47.620;18.786;2023-02-25T16:47:31;96995.60;;;5.40
67758;BMP180;54562;47.620;18.786;2023-02-25T16:50:41;97006.00;;;5.40
67758;BMP180;54562;47.620;18.786;2023-02-25T16:53:55;96999.20;;;5.38
67758;BMP180;54562;47.620;18.786;2023-02-25T16:57:16;97010.80;;;5.30
67758;BMP180;54562;47.620;18.786;2023-02-25T17:00:25;97026.00;;;5.20
67758;BMP180;54562;47.620;18.786;2023-02-25T17:03:43;97031.40;;;5.20
67758;BMP180;54562;47.620;18.786;2023-02-25T17:07:12;97024.80;;;5.20
67758;BMP180;54562;47.620;18.786;2023-02-25T17:10:28;97034.60;;;5.10
67758;BMP180;54562;47.620;18.786;2023-02-25T17:13:40;97037.40;;;5.10
67758;BMP180;54562;47.620;18.786;2023-02-25T17:16:50;97043.20;;;5.00
67758;BMP180;54562;47.620;18.786;2023-02-25T17:20:00;97062.80;;;5.00
67758;BMP180;54562;47.620;18.786;2023-02-25T17:23:12;97064.20;;;4.92
67758;BMP180;54562;47.620;18.786;2023-02-25T17:26:22;97108.00;;;4.90
67758;BMP180;54562;47.620;18.786;2023-02-25T17:29:34;97116.80;;;4.90
67758;BMP180;54562;47.620;18.786;2023-02-25T17:32:43;97122.00;;;4.80
67758;BMP180;54562;47.620;18.786;2023-02-25T17:36:10;97127.60;;;4.70
67758;BMP180;54562;47.620;18.786;2023-02-25T17:39:22;97115.20;;;4.64
67758;BMP180;54562;47.620;18.786;2023-02-25T17:42:34;97120.60;;;4.60
67758;BMP180;54562;47.620;18.786;2023-02-25T17:45:56;97131.00;;;4.50
67758;BMP180;54562;47.620;18.786;2023-02-25T17:49:19;97109.00;;;4.40
67758;BMP180;54562;47.620;18.786;2023-02-25T17:52:30;97100.00;;;4.40
67758;BMP180;54562;47.620;18.786;2023-02-25T17:55:39;97090.00;;;4.32
67758;BMP180;54562;47.620;18.786;2023-02-25T17:58:47;97086.80;;;4.30
67758;BMP180;54562;47.620;18.786;2023-02-25T18:01:58;97067.00;;;4.30
67758;BMP180;54562;47.620;18.786;2023-02-25T18:05:25;97070.80;;;4.30
67758;BMP180;54562;47.620;18.786;2023-02-25T18:08:50;97066.00;;;4.30
67758;BMP180;54562;47.620;18.786;2023-02-25T18:12:01;97075.40;;;4.30
67758;BMP180;54562;47.620;18.786;2023-02-25T18:15:19;97094.60;;;4.30
67758;BMP180;54562;47.620;18.786;2023-02-25T18:18:28;97092.20;;;4.20
67758;BMP180;54562;47.620;18.786;2023-02-25T18:21:42;97089.20;;;4.20
67758;BMP180;54562;47.620;18.786;2023-02-25T18:24:57;97086.60;;;4.20
67758;BMP180;54562;47.620;18.786;2023-02-25T18:28:13;97113.20;;;4.10
67758;BMP180;54562;47.620;18.786;2023-02-25T18:31:21;97107.40;;;4.08
67758;BMP180;54562;47.620;18.786;2023-02-25T18:34:30;97092.20;;;4.00
67758;BMP180;54562;47.620;18.786;2023-02-25T18:37:40;97078.60;;;3.96
67758;BMP180;54562;47.620;18.786;2023-02-25T18:40:50;97082.80;;;3.90
67758;BMP180;54562;47.620;18.786;2023-02-25T18:43:58;97084.60;;;3.90
67758;BMP180;54562;47.620;18.786;2023-02-25T18:47:09;97094.20;;;3.90
67758;BMP180;54562;47.620;18.786;2023-02-25T18:50:18;97123.40;;;3.80
67758;BMP180;54562;47.620;18.786;2023-02-25T18:53:28;97133.40;;;3.86
67758;BMP180;54562;47.620;18.786;2023-02-25T18:56:37;97127.20;;;3.90
67758;BMP180;54562;47.620;18.786;2023-02-25T18:59:47;97144.80;;;3.88
67758;BMP180;54562;47.620;18.786;2023-02-25T19:02:58;97166.80;;;3.90
67758;BMP180;54562;47.620;18.786;2023-02-25T19:06:09;97175.20;;;3.82
67758;BMP180;54562;47.620;18.786;2023-02-25T19:09:17;97180.80;;;3.80
67758;BMP180;54562;47.620;18.786;2023-02-25T19:12:28;97193.00;;;3.82
67758;BMP180;54562;47.620;18.786;2023-02-25T19:15:37;97191.80;;;3.82
67758;BMP180;54562;47.620;18.786;2023-02-25T19:18:45;97188.20;;;3.82